Time;durP1;ratioP1;P1;durP2;ratioP2;P2;SDS_P1;SDS_P2;PMS_P1;PMS_P2;Temp;Humidity;BMP_temperature;BMP_pressure;BME280_temperature;BME280_humidity;BME280_pressure;Samples;Min_cycle;Max_cycle;Signal;HPM_P1;HPM_P2
2022/09/07 00:01:28;;;;;;;11.18;3.65;;;;;;;17.31;100.00;101183.56;5055425;28;20052;-40
2022/09/07 00:03:55;;;;;;;8.05;3.20;;;;;;;17.18;100.00;101183.63;5058677;28;20032;-40
2022/09/07 00:06:20;;;;;;;9.10;3.05;;;;;;;17.13;100.00;101191.63;5041510;28;20049;-41
2022/09/07 00:08:45;;;;;;;7.43;2.67;;;;;;;17.09;100.00;101182.22;5056108;28;20059;-42
2022/09/07 00:11:16;;;;;;;7.18;3.25;;;;;;;17.07;100.00;101178.91;5046181;28;20022;-41
2022/09/07 00:13:43;;;;;;;10.98;3.60;;;;;;;17.03;100.00;101169.47;5039070;28;20048;-42
2022/09/07 00:16:12;;;;;;;7.82;3.35;;;;;;;17.02;100.00;101168.66;5039035;28;20038;-41
2022/09/07 00:18:38;;;;;;;8.48;3.67;;;;;;;17.05;100.00;101157.34;5039610;28;20083;-41
2022/09/07 00:21:07;;;;;;;9.88;4.07;;;;;;;17.05;100.00;101151.06;5056675;28;20036;-41
2022/09/07 00:23:33;;;;;;;13.82;3.88;;;;;;;17.01;100.00;101144.38;5057677;28;20026;-42
2022/09/07 00:26:04;;;;;;;10.82;3.75;;;;;;;16.95;100.00;101150.69;5057695;28;20045;-41
2022/09/07 00:28:30;;;;;;;13.57;3.63;;;;;;;16.89;100.00;101146.97;5058289;28;20037;-42
2022/09/07 00:30:55;;;;;;;11.93;3.00;;;;;;;16.85;100.00;101141.16;5047463;28;20041;-41
2022/09/07 00:33:21;;;;;;;10.00;3.83;;;;;;;16.83;100.00;101142.41;5038480;28;20033;-41
2022/09/07 00:35:47;;;;;;;4.63;2.63;;;;;;;16.84;100.00;101144.88;5050883;28;20034;-42
2022/09/07 00:38:12;;;;;;;7.28;3.42;;;;;;;16.85;100.00;101140.28;5044729;28;20049;-42
2022/09/07 00:40:37;;;;;;;11.10;3.50;;;;;;;16.86;100.00;101148.25;5051594;28;20022;-42
2022/09/07 00:43:04;;;;;;;11.05;3.42;;;;;;;16.88;100.00;101143.41;5057904;28;20026;-43
2022/09/07 00:45:29;;;;;;;8.02;3.10;;;;;;;16.86;100.00;101148.25;5057890;28;20036;-42
2022/09/07 00:48:15;;;;;;;8.98;3.28;;;;;;;16.85;100.00;101149.28;5057252;28;20029;-42
2022/09/07 00:50:47;;;;;;;8.75;3.05;;;;;;;16.81;100.00;101145.34;5035020;28;20033;-41
2022/09/07 00:53:30;;;;;;;5.80;2.97;;;;;;;16.84;100.00;101150.31;5038230;28;20033;-41
2022/09/07 00:55:56;;;;;;;5.60;2.58;;;;;;;16.82;100.00;101157.84;5020526;28;20018;-41
2022/09/07 00:58:22;;;;;;;7.10;2.85;;;;;;;16.83;100.00;101162.25;5051014;28;20021;-42
2022/09/07 01:00:49;;;;;;;10.57;2.90;;;;;;;16.85;100.00;101157.44;5039553;28;20040;-43
2022/09/07 01:03:21;;;;;;;12.52;3.47;;;;;;;16.87;100.00;101165.38;5057483;28;20029;-40
2022/09/07 01:05:56;;;;;;;8.52;3.22;;;;;;;16.88;100.00;101165.16;5040157;28;20089;-41
2022/09/07 01:08:22;;;;;;;6.55;3.80;;;;;;;16.93;100.00;101163.66;5037118;28;20061;-43
2022/09/07 01:10:48;;;;;;;5.88;3.75;;;;;;;16.96;100.00;101172.25;5048911;28;20029;-43
2022/09/07 01:13:14;;;;;;;12.02;3.55;;;;;;;17.01;100.00;101180.59;5037346;28;20036;-44
2022/09/07 01:16:15;;;;;;;8.52;4.20;;;;;;;17.06;100.00;101174.47;5045532;28;20055;-43
2022/09/07 01:19:17;;;;;;;11.25;4.00;;;;;;;17.02;100.00;101173.28;5038585;28;20044;-41
2022/09/07 01:22:14;;;;;;;8.57;4.28;;;;;;;17.10;100.00;101183.88;5024472;28;20026;-43
2022/09/07 01:24:51;;;;;;;10.27;3.92;;;;;;;17.06;100.00;101190.81;5036344;28;20045;-43
2022/09/07 01:27:35;;;;;;;11.90;4.68;;;;;;;17.00;100.00;101186.25;5042200;28;20029;-42
2022/09/07 01:30:05;;;;;;;11.05;4.80;;;;;;;17.03;100.00;101183.91;5056832;28;20025;-42
2022/09/07 01:33:00;;;;;;;12.07;5.47;;;;;;;17.02;100.00;101182.25;5056847;28;20081;-42
2022/09/07 01:35:37;;;;;;;13.57;5.93;;;;;;;17.02;100.00;101184.16;5037504;28;20028;-43
2022/09/07 01:38:41;;;;;;;13.50;5.82;;;;;;;16.94;100.00;101176.22;5038229;28;20033;-43
2022/09/07 01:41:24;;;;;;;20.23;6.07;;;;;;;16.91;100.00;101177.50;5048123;28;20041;-44
2022/09/07 01:44:08;;;;;;;15.38;5.80;;;;;;;16.96;100.00;101176.84;5037913;28;20022;-44
2022/09/07 01:46:46;;;;;;;9.07;5.40;;;;;;;16.86;100.00;101169.97;5050604;28;20101;-44
2022/09/07 01:49:25;;;;;;;11.00;5.43;;;;;;;16.92;100.00;101172.88;5037677;28;20026;-43
2022/09/07 01:51:54;;;;;;;12.98;5.45;;;;;;;16.88;100.00;101177.94;5038606;28;20029;-43
2022/09/07 01:54:26;;;;;;;19.05;5.95;;;;;;;16.93;100.00;101175.41;5038879;28;20021;-46
2022/09/07 01:56:56;;;;;;;13.30;5.25;;;;;;;16.91;100.00;101171.25;5034231;28;20026;-43
2022/09/07 01:59:29;;;;;;;12.88;5.65;;;;;;;16.89;100.00;101172.25;5036819;28;20052;-43
2022/09/07 02:02:09;;;;;;;14.15;5.55;;;;;;;16.96;100.00;101179.59;5039954;28;20033;-43
2022/09/07 02:04:48;;;;;;;13.15;5.78;;;;;;;16.99;100.00;101179.16;5019029;28;20029;-42
2022/09/07 02:10:13;;;;;;;16.45;6.07;;;;;;;16.96;100.00;101179.59;5028874;28;20095;-35
2022/09/07 02:12:40;;;;;;;13.02;6.30;;;;;;;16.88;100.00;101173.31;5033540;28;20068;-35
2022/09/07 02:15:19;;;;;;;14.57;5.70;;;;;;;16.91;100.00;101169.34;5013871;28;20072;-38
2022/09/07 02:17:49;;;;;;;13.98;5.95;;;;;;;16.87;100.00;101170.81;5025484;28;20021;-36
2022/09/07 02:20:29;;;;;;;15.65;5.97;;;;;;;16.86;100.00;101169.97;5014542;28;20029;-35
2022/09/07 02:22:57;;;;;;;17.80;6.03;;;;;;;16.91;100.00;101160.34;5015769;28;20407;-35
2022/09/07 02:25:30;;;;;;;24.42;6.80;;;;;;;16.92;100.00;101162.84;4995567;28;20045;-36
2022/09/07 02:28:01;;;;;;;19.50;6.03;;;;;;;16.93;100.00;101158.22;4996199;28;20520;-36
2022/09/07 02:30:26;;;;;;;16.48;6.43;;;;;;;16.91;100.00;101168.50;5009091;28;20033;-37
2022/09/07 02:32:52;;;;;;;14.10;6.25;;;;;;;16.85;100.00;101168.31;5015749;28;20032;-36
2022/09/07 02:35:17;;;;;;;16.10;6.32;;;;;;;16.80;100.00;101176.28;5015402;28;20029;-35
2022/09/07 02:37:43;;;;;;;19.77;6.07;;;;;;;16.79;100.00;101173.78;5013569;28;20431;-36
2022/09/07 02:40:09;;;;;;;14.48;6.40;;;;;;;16.78;100.00;101167.50;4996819;28;20546;-36
2022/09/07 02:42:35;;;;;;;21.30;6.60;;;;;;;16.79;100.00;101169.16;5033023;28;20117;-37
2022/09/07 02:45:03;;;;;;;17.60;6.82;;;;;;;16.80;100.00;101164.59;5015149;28;20025;-35
2022/09/07 02:47:49;;;;;;;19.65;6.78;;;;;;;16.81;100.00;101156.19;5014991;28;20045;-35
2022/09/07 02:50:46;;;;;;;14.97;6.77;;;;;;;16.75;100.00;101161.66;5021790;28;20042;-34
2022/09/07 02:53:29;;;;;;;15.32;6.68;;;;;;;16.68;100.00;101167.91;4964131;28;20331;-36
2022/09/07 02:56:11;;;;;;;16.40;6.80;;;;;;;16.73;100.00;101167.28;5013620;28;20036;-35
2022/09/07 02:58:51;;;;;;;12.32;6.65;;;;;;;16.68;100.00;101169.81;5022510;28;20028;-35
2022/09/07 03:01:28;;;;;;;15.68;6.60;;;;;;;16.59;100.00;101169.22;5004942;28;20053;-35
2022/09/07 03:04:12;;;;;;;18.73;6.93;;;;;;;16.63;100.00;101169.63;5028842;28;20025;-35
2022/09/07 03:06:47;;;;;;;17.08;6.93;;;;;;;16.59;100.00;101163.78;5035708;28;20068;-34
2022/09/07 03:09:19;;;;;;;12.98;6.88;;;;;;;16.59;100.00;101158.34;5012961;28;20053;-35
2022/09/07 03:11:44;;;;;;;14.48;7.10;;;;;;;16.59;100.00;101152.91;5014355;28;20148;-36
2022/09/07 03:14:11;;;;;;;19.27;6.78;;;;;;;16.60;100.00;101138.28;5031954;28;20198;-35
2022/09/07 03:16:37;;;;;;;16.92;7.10;;;;;;;16.62;100.00;101136.19;5011415;28;20489;-35
2022/09/07 03:19:03;;;;;;;19.67;7.32;;;;;;;16.56;100.00;101144.34;5048931;28;20120;-34
2022/09/07 03:21:30;;;;;;;17.73;7.63;;;;;;;16.45;100.00;101143.94;5031946;28;20030;-36
2022/09/07 03:23:55;;;;;;;13.57;7.20;;;;;;;16.43;100.00;101140.63;5032381;28;20167;-36
2022/09/07 03:26:23;;;;;;;17.88;7.55;;;;;;;16.37;100.00;101138.75;5014465;28;20100;-36
2022/09/07 03:28:49;;;;;;;16.42;7.65;;;;;;;16.37;100.00;101138.75;5032876;28;20033;-35
2022/09/07 03:31:14;;;;;;;17.25;6.90;;;;;;;16.37;100.00;101136.03;5013708;28;20037;-35
2022/09/07 03:33:40;;;;;;;23.02;7.97;;;;;;;16.34;100.00;101139.19;4998332;28;20036;-36
2022/09/07 03:36:05;;;;;;;14.48;7.47;;;;;;;16.30;100.00;101135.25;5033356;28;20022;-36
2022/09/07 03:38:30;;;;;;;17.02;7.50;;;;;;;16.29;100.00;101130.84;5033279;28;20029;-35
2022/09/07 03:41:00;;;;;;;17.02;7.32;;;;;;;16.29;100.00;101128.13;5032563;28;20109;-35
2022/09/07 03:43:26;;;;;;;16.20;7.75;;;;;;;16.24;100.00;101133.34;5013865;28;20163;-36
2022/09/07 03:45:59;;;;;;;13.98;7.18;;;;;;;16.22;100.00;101124.59;5052317;28;20049;-36
2022/09/07 03:48:25;;;;;;;12.23;7.30;;;;;;;16.22;100.00;101130.03;5024871;28;20036;-35
2022/09/07 03:51:05;;;;;;;19.30;7.50;;;;;;;16.18;100.00;101139.66;5033179;28;20373;-32
2022/09/07 03:53:32;;;;;;;22.83;7.85;;;;;;;16.15;100.00;101134.66;5014502;28;20261;-35
2022/09/07 03:56:03;;;;;;;12.50;7.25;;;;;;;16.10;100.00;101132.56;5031878;28;20017;-34
2022/09/07 03:58:30;;;;;;;13.25;6.95;;;;;;;16.12;100.00;101130.47;5033214;28;20534;-35
2022/09/07 04:00:57;;;;;;;12.63;6.93;;;;;;;16.08;100.00;101137.34;5041742;28;20483;-36
2022/09/07 04:03:22;;;;;;;21.48;7.65;;;;;;;16.11;100.00;101136.09;5013607;28;20041;-35
2022/09/07 04:05:47;;;;;;;12.25;7.22;;;;;;;16.08;100.00;101133.81;5018609;28;20026;-35
2022/09/07 04:08:13;;;;;;;13.45;7.45;;;;;;;16.09;100.00;101140.91;5035660;28;20048;-35
2022/09/07 04:10:39;;;;;;;19.20;8.07;;;;;;;16.09;100.00;101141.75;5019982;28;20484;-36
2022/09/07 04:13:05;;;;;;;16.55;7.85;;;;;;;16.04;100.00;101146.97;5044262;28;20036;-34
2022/09/07 04:15:31;;;;;;;20.17;8.98;;;;;;;16.02;100.00;101147.19;5012246;28;20460;-36
2022/09/07 04:17:56;;;;;;;18.77;8.82;;;;;;;16.00;100.00;101149.25;5034805;28;20036;-37
2022/09/07 04:20:22;;;;;;;19.98;8.13;;;;;;;15.94;100.00;101150.13;5034074;28;20091;-36
2022/09/07 04:22:48;;;;;;;13.77;8.45;;;;;;;15.95;100.00;101145.50;5054535;28;20025;-35
2022/09/07 04:25:13;;;;;;;17.17;8.35;;;;;;;15.94;100.00;101139.25;5041798;28;20029;-35
2022/09/07 04:27:39;;;;;;;15.60;7.93;;;;;;;15.93;100.00;101140.31;5044789;28;20064;-36
2022/09/07 04:30:05;;;;;;;15.63;7.65;;;;;;;15.94;100.00;101139.25;5035911;28;20033;-36
2022/09/07 04:32:30;;;;;;;18.55;8.15;;;;;;;15.93;100.00;101134.88;5035702;28;20025;-36
2022/09/07 04:34:55;;;;;;;12.88;6.70;;;;;;;15.91;100.00;101136.97;5018042;28;20056;-35
2022/09/07 04:37:21;;;;;;;13.48;7.28;;;;;;;15.90;100.00;101138.00;5030587;28;20046;-34
2022/09/07 04:39:46;;;;;;;17.25;7.45;;;;;;;15.91;100.00;101139.69;5032455;28;20022;-34
2022/09/07 04:42:12;;;;;;;20.77;7.57;;;;;;;15.90;100.00;101142.59;5017974;28;20038;-35
2022/09/07 04:44:37;;;;;;;15.45;7.38;;;;;;;15.88;100.00;101145.53;5016132;28;20030;-35
2022/09/07 04:47:02;;;;;;;9.68;6.38;;;;;;;15.91;100.00;101136.13;5040386;28;20033;-34
2022/09/07 04:49:28;;;;;;;14.57;6.93;;;;;;;15.88;100.00;101133.84;5038341;28;20067;-35
2022/09/07 04:51:53;;;;;;;14.18;6.68;;;;;;;15.88;100.00;101129.25;5032883;28;20034;-36
2022/09/07 04:54:18;;;;;;;11.73;6.57;;;;;;;15.89;100.00;101124.66;5035388;28;20029;-35
2022/09/07 04:56:44;;;;;;;14.70;6.45;;;;;;;15.90;100.00;101110.84;5008338;28;20041;-37
2022/09/07 04:59:10;;;;;;;17.13;8.32;;;;;;;15.91;100.00;101123.41;5025113;28;20120;-35
2022/09/07 05:01:35;;;;;;;11.25;7.05;;;;;;;15.93;100.00;101121.31;5012412;28;20028;-36
2022/09/07 05:04:01;;;;;;;14.18;7.00;;;;;;;15.95;100.00;101126.50;5030648;28;20029;-35
2022/09/07 05:06:27;;;;;;;14.50;5.88;;;;;;;15.93;100.00;101113.16;5011107;28;20029;-36
2022/09/07 05:08:53;;;;;;;13.90;6.75;;;;;;;15.91;100.00;101112.53;5024416;28;20041;-37
2022/09/07 05:11:20;;;;;;;20.48;6.57;;;;;;;15.91;100.00;101111.72;5011456;28;20041;-36
2022/09/07 05:13:46;;;;;;;15.20;7.85;;;;;;;15.86;100.00;101119.66;5028295;28;20185;-36
2022/09/07 05:16:16;;;;;;;20.33;7.25;;;;;;;15.82;100.00;101123.81;5013440;28;20464;-35
2022/09/07 05:18:41;;;;;;;17.67;9.50;;;;;;;15.80;100.00;101121.31;5028653;28;20038;-38
2022/09/07 05:21:12;;;;;;;17.30;9.70;;;;;;;15.80;100.00;101124.88;5010244;28;20029;-37
2022/09/07 05:23:39;;;;;;;20.58;11.85;;;;;;;15.80;100.00;101126.75;5029285;28;20108;-36
2022/09/07 05:26:05;;;;;;;26.27;11.13;;;;;;;15.82;100.00;101132.78;5016426;28;20121;-35
2022/09/07 05:28:31;;;;;;;27.92;11.88;;;;;;;15.80;100.00;101122.16;5030135;28;20540;-36
2022/09/07 05:31:07;;;;;;;28.75;12.85;;;;;;;15.86;100.00;101115.03;5027740;28;20030;-38
2022/09/07 05:33:33;;;;;;;22.25;13.35;;;;;;;15.90;100.00;101120.88;5024387;28;20049;-37
2022/09/07 05:35:59;;;;;;;24.00;13.50;;;;;;;15.91;100.00;101128.81;5020017;28;20060;-36
2022/09/07 05:38:24;;;;;;;29.10;13.45;;;;;;;15.98;100.00;101132.38;5031395;28;20026;-34
2022/09/07 05:40:50;;;;;;;22.02;13.10;;;;;;;16.15;100.00;101131.94;5029436;28;20045;-37
2022/09/07 05:43:16;;;;;;;28.98;13.05;;;;;;;16.19;100.00;101130.44;5020094;28;20142;-36
2022/09/07 05:45:41;;;;;;;20.45;12.25;;;;;;;16.24;100.00;101126.06;5014952;28;20493;-37
2022/09/07 05:48:07;;;;;;;23.95;13.07;;;;;;;16.36;100.00;101130.84;5028906;28;20034;-36
2022/09/07 05:50:33;;;;;;;28.05;13.50;;;;;;;16.58;100.00;101131.38;5027503;28;20049;-34
2022/09/07 05:52:58;;;;;;;26.52;12.90;;;;;;;17.09;100.00;101123.25;5027442;28;20044;-35
2022/09/07 05:55:23;;;;;;;19.52;10.68;;;;;;;17.57;100.00;101126.47;5026257;28;20357;-38
2022/09/07 05:57:49;;;;;;;19.65;11.05;;;;;;;17.88;100.00;101125.63;5007928;28;20041;-36
2022/09/07 06:00:14;;;;;;;21.67;11.05;;;;;;;18.48;100.00;101136.72;5028461;28;20484;-35
2022/09/07 06:02:40;;;;;;;22.00;9.80;;;;;;;18.68;94.46;101143.84;5026141;28;20431;-36
2022/09/07 06:05:09;;;;;;;21.83;9.50;;;;;;;19.12;92.64;101144.56;5012211;28;20022;-37
2022/09/07 06:07:35;;;;;;;21.60;10.45;;;;;;;19.30;88.82;101141.78;5011074;28;20112;-36
2022/09/07 06:10:00;;;;;;;18.00;8.98;;;;;;;19.34;86.91;101147.59;5023342;28;20132;-35
2022/09/07 06:12:26;;;;;;;26.85;10.30;;;;;;;19.01;87.26;101138.84;5023397;28;20029;-37
2022/09/07 06:14:51;;;;;;;18.20;10.00;;;;;;;18.62;88.27;101145.59;5010605;28;20053;-35
2022/09/07 06:17:16;;;;;;;18.67;9.73;;;;;;;18.31;90.13;101146.56;5010604;28;20481;-36
2022/09/07 06:19:42;;;;;;;23.88;10.77;;;;;;;17.80;92.79;101153.09;5020369;28;20128;-35
2022/09/07 06:22:07;;;;;;;27.02;11.25;;;;;;;17.51;95.25;101158.13;5029157;28;20061;-35
2022/09/07 06:24:32;;;;;;;28.08;12.45;;;;;;;17.41;97.16;101161.31;5028681;28;20044;-35
2022/09/07 06:26:58;;;;;;;28.35;12.13;;;;;;;17.41;98.03;101161.31;5029683;28;20025;-35
2022/09/07 06:29:23;;;;;;;25.83;12.65;;;;;;;17.42;98.58;101162.97;5028649;28;20026;-38
2022/09/07 06:31:48;;;;;;;30.27;13.05;;;;;;;17.44;98.59;101162.78;5028595;28;20033;-37
2022/09/07 06:34:15;;;;;;;25.27;13.75;;;;;;;17.49;99.05;101168.41;5026817;28;20049;-34
2022/09/07 06:36:40;;;;;;;26.35;14.25;;;;;;;17.39;99.85;101168.88;5025187;28;20468;-35
2022/09/07 06:39:05;;;;;;;34.17;14.63;;;;;;;17.49;100.00;101171.13;5026943;28;20457;-35
2022/09/07 06:41:31;;;;;;;29.60;13.23;;;;;;;17.66;100.00;101174.94;5010961;28;20445;-35
2022/09/07 06:43:57;;;;;;;29.45;14.05;;;;;;;17.54;99.35;101176.72;5010810;28;20092;-35
2022/09/07 06:46:23;;;;;;;24.40;13.20;;;;;;;17.62;99.36;101187.34;5027656;28;20112;-39
2022/09/07 06:48:54;;;;;;;29.25;13.32;;;;;;;17.92;98.30;101181.28;5026821;28;20045;-35
2022/09/07 06:51:25;;;;;;;29.63;13.80;;;;;;;17.89;97.90;101185.28;5027547;28;20072;-35
2022/09/07 06:53:50;;;;;;;24.90;14.75;;;;;;;17.62;97.16;101190.06;5025591;28;20035;-35
2022/09/07 06:56:17;;;;;;;34.75;14.55;;;;;;;17.70;97.01;101197.97;5009039;28;20112;-34
2022/09/07 06:58:42;;;;;;;24.23;14.50;;;;;;;17.54;97.61;101195.78;5027464;28;20061;-35
2022/09/07 07:01:13;;;;;;;34.10;14.77;;;;;;;17.54;98.50;101193.91;5025160;28;20072;-34
2022/09/07 07:03:38;;;;;;;32.33;14.18;;;;;;;17.49;98.40;101199.16;5011339;28;20060;-34
2022/09/07 07:06:04;;;;;;;31.08;14.00;;;;;;;17.46;98.72;101207.75;5025824;28;20493;-35
2022/09/07 07:08:30;;;;;;;29.02;13.93;;;;;;;17.75;98.35;101206.31;5012675;28;20049;-34
2022/09/07 07:11:00;;;;;;;26.17;13.27;;;;;;;17.90;96.14;101197.00;5009864;28;20029;-38
2022/09/07 07:13:26;;;;;;;22.83;12.93;;;;;;;18.40;93.92;101202.41;5012316;28;20128;-33
2022/09/07 07:15:52;;;;;;;21.27;11.80;;;;;;;18.95;91.57;101199.72;5015874;28;20149;-44
2022/09/07 07:18:17;;;;;;;24.70;12.10;;;;;;;19.25;88.76;101193.50;5018867;28;20048;-43
2022/09/07 07:20:43;;;;;;;25.65;11.55;;;;;;;20.01;85.25;101191.94;5028085;28;20037;-42
2022/09/07 07:23:09;;;;;;;21.48;11.32;;;;;;;20.21;83.44;101188.84;5027779;28;20112;-41
2022/09/07 07:25:35;;;;;;;20.30;10.80;;;;;;;20.78;81.25;101202.72;5025241;28;20112;-42
2022/09/07 07:28:01;;;;;;;23.73;12.70;;;;;;;20.38;81.67;101198.00;5014902;28;20120;-43
2022/09/07 07:30:27;;;;;;;24.05;13.25;;;;;;;20.14;80.60;101202.63;5021382;28;20026;-42
2022/09/07 07:32:52;;;;;;;23.98;13.32;;;;;;;20.94;80.68;101206.63;5030381;28;20013;-44
2022/09/07 07:35:18;;;;;;;25.73;14.27;;;;;;;20.45;80.26;101203.34;5012149;28;20037;-42
2022/09/07 07:37:43;;;;;;;26.35;14.38;;;;;;;20.19;81.02;101201.91;5023934;28;20052;-41
2022/09/07 07:40:10;;;;;;;23.27;13.80;;;;;;;21.02;79.72;101203.50;5031338;28;20404;-43
2022/09/07 07:42:38;;;;;;;27.08;14.00;;;;;;;21.29;75.53;101213.88;5030083;28;20116;-42
2022/09/07 07:45:07;;;;;;;22.20;12.57;;;;;;;22.28;72.83;101216.19;5030883;28;20121;-42
2022/09/07 07:47:34;;;;;;;25.30;11.70;;;;;;;22.67;72.33;101218.09;5030405;28;20117;-41
2022/09/07 07:50:00;;;;;;;26.45;12.00;;;;;;;22.91;67.79;101214.06;5030339;28;20498;-42
2022/09/07 07:52:31;;;;;;;22.13;11.27;;;;;;;22.77;69.86;101215.50;5024206;28;20044;-43
2022/09/07 07:54:57;;;;;;;23.35;11.15;;;;;;;22.64;69.94;101224.94;5014131;28;20057;-42
2022/09/07 07:57:22;;;;;;;15.75;10.07;;;;;;;22.83;70.90;101221.88;5026713;28;20121;-45
2022/09/07 07:59:48;;;;;;;17.65;9.27;;;;;;;23.94;68.71;101221.50;5026141;28;20029;-42
2022/09/07 08:02:15;;;;;;;20.80;9.57;;;;;;;24.63;62.18;101217.88;5032727;28;20041;-42
2022/09/07 08:04:40;;;;;;;15.88;9.10;;;;;;;25.08;61.43;101213.69;5027988;28;20552;-43
2022/09/07 08:07:06;;;;;;;19.40;9.10;;;;;;;24.33;62.35;101213.00;5020416;28;20108;-42
2022/09/07 08:09:31;;;;;;;16.52;10.02;;;;;;;24.43;63.00;101212.22;5025445;28;20408;-44
2022/09/07 08:11:56;;;;;;;26.92;13.60;;;;;;;23.54;63.42;101206.28;5024964;28;20503;-42
2022/09/07 08:14:22;;;;;;;26.98;13.38;;;;;;;22.89;65.60;101196.19;5031365;28;20499;-44
2022/09/07 08:16:47;;;;;;;25.63;12.52;;;;;;;22.84;67.95;101198.88;5030523;28;20477;-43
2022/09/07 08:19:13;;;;;;;34.63;14.93;;;;;;;22.37;68.00;101202.88;5013298;28;20032;-42
2022/09/07 08:21:38;;;;;;;26.05;14.00;;;;;;;22.41;68.62;101193.09;5030391;28;20041;-42
2022/09/07 08:24:03;;;;;;;24.77;13.68;;;;;;;22.27;69.72;101191.75;5027664;28;20021;-41
2022/09/07 08:26:29;;;;;;;30.02;15.23;;;;;;;22.40;68.23;101196.06;5028321;28;20044;-43
2022/09/07 08:28:55;;;;;;;31.23;14.30;;;;;;;22.35;69.68;101183.09;5014081;28;20026;-42
2022/09/07 08:31:21;;;;;;;23.10;11.75;;;;;;;23.12;66.51;101181.41;5030883;28;20037;-43
2022/09/07 08:33:46;;;;;;;23.95;12.68;;;;;;;23.90;64.54;101183.81;5030146;28;20037;-42
2022/09/07 08:36:17;;;;;;;23.35;11.45;;;;;;;23.47;64.33;101188.34;5029255;28;20124;-42
2022/09/07 08:38:43;;;;;;;23.80;11.68;;;;;;;23.63;64.07;101192.91;5011989;28;20037;-39
2022/09/07 08:41:39;;;;;;;23.73;10.75;;;;;;;23.50;62.84;101193.31;5031488;28;20189;-43
2022/09/07 08:44:29;;;;;;;24.88;11.30;;;;;;;23.93;61.39;101186.03;5013688;28;20034;-41
2022/09/07 08:47:12;;;;;;;28.13;11.32;;;;;;;23.86;60.34;101189.84;5027019;28;20120;-42
2022/09/07 08:49:48;;;;;;;21.17;9.73;;;;;;;24.71;59.49;101189.84;5023125;28;20539;-42
2022/09/07 08:52:24;;;;;;;15.43;8.07;;;;;;;25.19;57.44;101190.59;5028176;28;20045;-43
2022/09/07 08:55:03;;;;;;;15.17;6.77;;;;;;;25.64;55.42;101193.72;5025598;28;20028;-44
2022/09/07 08:57:30;;;;;;;21.83;7.53;;;;;;;25.31;57.35;101186.78;5026323;28;20281;-41
2022/09/07 09:00:14;;;;;;;15.57;7.15;;;;;;;25.72;56.17;101204.19;5008331;28;20037;-44
2022/09/07 09:02:39;;;;;;;21.42;5.82;;;;;;;25.42;54.49;101201.41;5022690;28;20030;-40
2022/09/07 09:05:16;;;;;;;18.85;5.40;;;;;;;25.97;53.08;101197.91;5027972;28;20106;-41
2022/09/07 09:08:00;;;;;;;17.38;5.43;;;;;;;25.28;53.67;101209.38;5008501;28;20049;-43
2022/09/07 09:10:28;;;;;;;23.50;6.00;;;;;;;24.81;55.94;101193.75;5028677;28;20064;-42
2022/09/07 09:13:16;;;;;;;17.35;5.88;;;;;;;24.03;58.44;101180.59;5029464;28;20120;-43
2022/09/07 09:15:50;;;;;;;26.33;7.07;;;;;;;24.23;57.73;101186.25;5028924;28;21090;-42
2022/09/07 09:18:15;;;;;;;20.75;6.03;;;;;;;24.52;57.66;101184.00;5009642;28;20030;-41
2022/09/07 09:20:56;;;;;;;21.90;6.03;;;;;;;25.21;56.96;101195.03;5009969;28;20037;-40
2022/09/07 09:23:39;;;;;;;18.55;5.15;;;;;;;25.78;55.28;101194.84;5023311;28;20045;-43
2022/09/07 09:26:26;;;;;;;16.30;5.40;;;;;;;25.72;55.86;101195.09;5008860;28;20021;-39
2022/09/07 09:28:52;;;;;;;22.10;5.53;;;;;;;26.91;53.41;101189.97;5025799;28;20041;-41
2022/09/07 09:31:22;;;;;;;19.65;5.43;;;;;;;26.69;51.03;101192.25;5027711;28;20040;-41
2022/09/07 09:34:17;;;;;;;17.95;5.72;;;;;;;25.49;53.54;101190.94;5016623;28;20044;-40
2022/09/07 09:36:45;;;;;;;16.52;5.90;;;;;;;25.22;53.80;101199.44;5029885;28;20037;-42
2022/09/07 09:39:30;;;;;;;21.42;6.03;;;;;;;25.06;53.90;101191.09;5026151;28;20076;-42
2022/09/07 09:42:13;;;;;;;20.88;4.82;;;;;;;24.94;54.78;101190.50;5028801;28;20023;-42
2022/09/07 09:44:38;;;;;;;18.55;5.22;;;;;;;24.85;54.97;101189.34;5001649;28;20052;-41
2022/09/07 09:47:05;;;;;;;22.33;5.50;;;;;;;25.14;53.07;101185.03;5007426;28;20377;-42
2022/09/07 09:49:35;;;;;;;17.73;4.80;;;;;;;24.73;54.10;101195.94;5026353;28;20028;-42
2022/09/07 09:52:03;;;;;;;14.52;4.72;;;;;;;23.85;55.36;101199.16;5009083;28;20507;-41
2022/09/07 09:54:51;;;;;;;;;;;;;;;23.72;56.79;101174.84;5011074;28;20458;-42
2022/09/07 09:57:50;;;;;;;22.27;4.43;;;;;;;23.33;57.93;101171.44;5010511;28;19920;-42
2022/09/07 10:00:18;;;;;;;29.17;4.97;;;;;;;23.11;57.68;101168.75;5007162;28;20048;-42
2022/09/07 10:02:57;;;;;;;18.35;4.38;;;;;;;22.76;60.05;101162.56;5029467;28;20061;-42
2022/09/07 10:05:33;;;;;;;23.98;5.07;;;;;;;22.78;59.43;101162.31;5027147;28;20438;-42
2022/09/07 10:07:59;;;;;;;14.90;4.22;;;;;;;22.82;57.98;101166.19;5002807;28;20132;-42
2022/09/07 10:10:26;;;;;;;25.42;4.68;;;;;;;22.56;58.86;101168.63;5010603;28;20128;-42
2022/09/07 10:12:53;;;;;;;21.35;4.78;;;;;;;22.55;59.72;101171.59;5012166;28;20040;-43
2022/09/07 10:15:28;;;;;;;24.00;4.07;;;;;;;22.58;59.05;101171.91;5029767;28;20025;-41
2022/09/07 10:17:53;;;;;;;17.77;3.88;;;;;;;22.77;59.58;101171.59;5026407;28;20025;-40
2022/09/07 10:20:33;;;;;;;22.73;4.15;;;;;;;22.65;58.93;101171.75;5009499;28;20064;-39
2022/09/07 10:22:59;;;;;;;20.27;4.05;;;;;;;22.69;58.00;101180.28;5008284;28;20056;-42
2022/09/07 10:25:39;;;;;;;20.40;4.28;;;;;;;22.43;58.23;101179.09;5026978;28;20041;-41
2022/09/07 10:28:08;;;;;;;23.55;4.30;;;;;;;22.42;59.21;101175.53;5016004;28;20185;-42
2022/09/07 10:31:05;;;;;;;24.40;4.70;;;;;;;22.67;59.31;101168.72;5028262;28;20045;-40
2022/09/07 10:33:36;;;;;;;24.10;5.43;;;;;;;22.51;58.58;101164.94;5026365;28;20022;-42
2022/09/07 10:36:11;;;;;;;20.02;4.57;;;;;;;22.64;60.63;101164.56;5028286;28;20033;-41
2022/09/07 10:38:43;;;;;;;19.05;4.65;;;;;;;22.91;60.80;101169.31;5011188;28;20057;-42
2022/09/07 10:41:10;;;;;;;28.83;5.20;;;;;;;22.86;59.97;101177.50;5010278;28;20029;-41
2022/09/07 10:43:43;;;;;;;22.42;4.63;;;;;;;22.97;60.81;101168.31;5004814;28;20174;-41
2022/09/07 10:46:43;;;;;;;20.98;4.68;;;;;;;22.95;61.02;101156.72;5012026;28;20029;-42
2022/09/07 10:49:14;;;;;;;19.40;5.63;;;;;;;22.87;60.27;101159.94;5028034;28;20060;-42
2022/09/07 10:51:45;;;;;;;19.80;5.43;;;;;;;22.69;60.63;101161.06;5028476;28;20035;-43
2022/09/07 10:54:20;;;;;;;21.67;5.85;;;;;;;22.69;60.90;101159.16;5005172;28;20037;-40
2022/09/07 10:57:01;;;;;;;14.10;4.28;;;;;;;22.87;58.42;101149.78;5028876;28;20037;-41
2022/09/07 10:59:55;;;;;;;15.65;4.40;;;;;;;22.95;58.98;101162.22;5012041;28;20041;-42
2022/09/07 11:02:31;;;;;;;18.08;4.03;;;;;;;23.16;57.76;101160.56;5009424;28;20476;-43
2022/09/07 11:05:34;;;;;;;24.42;6.00;;;;;;;23.42;57.13;101164.41;5022877;28;20125;-41
2022/09/07 11:08:39;;;;;;;17.13;4.38;;;;;;;23.61;57.16;101162.09;5021851;28;20408;-43
2022/09/07 11:11:20;;;;;;;20.52;4.82;;;;;;;23.64;55.36;101153.31;5023019;28;20033;-42
2022/09/07 11:13:50;;;;;;;19.50;5.18;;;;;;;23.34;55.92;101154.72;5022170;28;20441;-42
2022/09/07 11:16:22;;;;;;;19.10;3.97;;;;;;;23.32;56.69;101148.63;5024969;28;20025;-41
2022/09/07 11:18:50;;;;;;;28.48;4.72;;;;;;;23.49;55.16;101158.72;5026396;28;20036;-43
2022/09/07 11:21:17;;;;;;;25.30;4.95;;;;;;;23.39;56.03;101154.75;5020825;28;20033;-42
2022/09/07 11:23:51;;;;;;;15.27;3.50;;;;;;;23.87;54.48;101161.25;5028374;28;20091;-42
2022/09/07 11:26:42;;;;;;;19.08;3.20;;;;;;;24.05;51.62;101153.69;5004691;28;20137;-41
2022/09/07 11:29:41;;;;;;;16.95;3.60;;;;;;;25.28;49.36;101151.53;5015198;28;20150;-41
2022/09/07 11:32:11;;;;;;;19.25;3.70;;;;;;;25.07;48.55;101150.63;4997859;28;20041;-40